Time;durP1;ratioP1;P1;durP2;ratioP2;P2;SDS_P1;SDS_P2;PMS_P1;PMS_P2;Temp;Humidity;BMP_temperature;BMP_pressure;BME280_temperature;BME280_humidity;BME280_pressure;Samples;Min_cycle;Max_cycle;Signal;HPM_P1;HPM_P2
2023/03/15 00:01:36;;;;;;;6.05;1.90;;;5.30;96.90;;;;;;5089644;28;20105;-70
2023/03/15 00:04:04;;;;;;;5.60;2.15;;;5.40;96.90;;;;;;5092500;28;20024;-70
2023/03/15 00:06:32;;;;;;;10.13;3.25;;;5.30;96.80;;;;;;5096543;28;20073;-70
2023/03/15 00:08:58;;;;;;;7.35;2.63;;;5.30;96.80;;;;;;5097111;28;20032;-71
2023/03/15 00:11:24;;;;;;;6.28;2.47;;;5.20;96.80;;;;;;5088159;28;20031;-70
2023/03/15 00:13:50;;;;;;;7.68;2.28;;;5.30;96.70;;;;;;5090453;28;20479;-70
2023/03/15 00:16:17;;;;;;;6.50;2.20;;;5.30;96.80;;;;;;5096747;28;20748;-70
2023/03/15 00:18:43;;;;;;;4.47;2.05;;;5.30;96.70;;;;;;5092357;28;20474;-70
2023/03/15 00:21:09;;;;;;;8.65;3.53;;;5.30;96.80;;;;;;5089168;28;20032;-70
2023/03/15 00:23:35;;;;;;;11.50;2.63;;;5.30;96.80;;;;;;5092228;28;20035;-71
2023/03/15 00:26:01;;;;;;;9.80;2.65;;;5.30;96.80;;;;;;5090429;28;20081;-71
2023/03/15 00:28:26;;;;;;;5.03;2.17;;;5.30;96.70;;;;;;5087632;28;20035;-71
2023/03/15 00:31:13;;;;;;;5.25;2.13;;;5.30;96.70;;;;;;5096910;28;20024;-71
2023/03/15 00:33:40;;;;;;;9.95;2.45;;;5.30;96.70;;;;;;5090616;28;20043;-71
2023/03/15 00:36:07;;;;;;;5.95;2.00;;;5.30;96.70;;;;;;5094419;28;20028;-69
2023/03/15 00:38:33;;;;;;;4.40;1.90;;;5.30;96.70;;;;;;5089612;28;20063;-70
2023/03/15 00:41:07;;;;;;;9.02;3.03;;;5.30;96.70;;;;;;5092903;28;20020;-70
2023/03/15 00:43:34;;;;;;;11.38;1.90;;;5.30;96.70;;;;;;5095816;28;20028;-70
2023/03/15 00:46:00;;;;;;;7.50;2.80;;;5.30;96.70;;;;;;5094433;28;20027;-69
2023/03/15 00:48:26;;;;;;;7.72;2.30;;;5.30;96.60;;;;;;5090298;28;20103;-69
2023/03/15 00:51:08;;;;;;;8.45;2.38;;;5.30;96.60;;;;;;5091670;28;20552;-69
2023/03/15 00:53:35;;;;;;;7.80;3.00;;;5.30;96.60;;;;;;5078463;28;20044;-69
2023/03/15 00:56:07;;;;;;;8.15;1.88;;;5.30;96.50;;;;;;5094178;28;20402;-68
2023/03/15 00:58:33;;;;;;;6.20;2.58;;;5.30;96.50;;;;;;5094628;28;20047;-69
2023/03/15 01:01:00;;;;;;;8.57;3.00;;;5.30;96.50;;;;;;5094866;28;20027;-69
2023/03/15 01:03:27;;;;;;;5.50;2.00;;;5.20;96.50;;;;;;5084647;28;20047;-69
2023/03/15 01:05:52;;;;;;;7.20;2.25;;;5.20;96.50;;;;;;5081038;28;20019;-69
2023/03/15 01:08:18;;;;;;;7.78;2.33;;;5.20;96.50;;;;;;5107691;28;20035;-69
2023/03/15 01:10:44;;;;;;;7.13;1.80;;;5.20;96.50;;;;;;5093705;28;20544;-69
2023/03/15 01:13:09;;;;;;;7.85;1.73;;;5.20;96.50;;;;;;5095987;28;20483;-69
2023/03/15 01:15:35;;;;;;;5.00;1.60;;;5.10;96.50;;;;;;5091477;28;20021;-69
2023/03/15 01:18:00;;;;;;;8.02;2.45;;;5.20;96.50;;;;;;5095822;28;20032;-70
2023/03/15 01:20:26;;;;;;;6.70;1.95;;;5.20;96.50;;;;;;5089076;28;20021;-69
2023/03/15 01:22:51;;;;;;;6.47;1.90;;;5.10;96.50;;;;;;5108759;28;20380;-69
2023/03/15 01:25:17;;;;;;;6.75;2.10;;;5.10;96.50;;;;;;5094798;28;20024;-69
2023/03/15 01:27:43;;;;;;;4.60;1.88;;;5.10;96.50;;;;;;5095788;28;20177;-69
2023/03/15 01:30:09;;;;;;;5.68;2.38;;;5.10;96.50;;;;;;5093706;28;20036;-69
2023/03/15 01:32:35;;;;;;;6.03;1.95;;;5.10;96.50;;;;;;5094171;28;20032;-69
2023/03/15 01:35:00;;;;;;;5.93;2.17;;;5.10;96.50;;;;;;5081474;28;20069;-70
2023/03/15 01:37:26;;;;;;;6.63;1.90;;;5.10;96.50;;;;;;5109036;28;20118;-69
2023/03/15 01:39:52;;;;;;;8.45;2.85;;;5.00;96.40;;;;;;5114382;28;20421;-69
2023/03/15 01:42:18;;;;;;;13.73;3.47;;;5.10;96.50;;;;;;5094813;28;20028;-69
2023/03/15 01:45:01;;;;;;;8.15;2.72;;;5.00;96.40;;;;;;5095359;28;20544;-69
2023/03/15 01:47:27;;;;;;;7.88;1.90;;;5.00;96.50;;;;;;5109656;28;20043;-71
2023/03/15 01:50:10;;;;;;;6.72;2.08;;;5.00;96.40;;;;;;5104973;28;20114;-70
2023/03/15 01:52:39;;;;;;;5.65;2.67;;;5.00;96.40;;;;;;5092566;28;20040;-70
2023/03/15 01:55:15;;;;;;;5.45;2.13;;;5.00;96.40;;;;;;5093610;28;20020;-70
2023/03/15 01:57:46;;;;;;;5.78;1.75;;;5.00;96.40;;;;;;5111389;28;20120;-70
2023/03/15 02:00:15;;;;;;;9.57;1.85;;;5.00;96.40;;;;;;5101114;28;20028;-70
2023/03/15 02:02:46;;;;;;;5.57;2.05;;;5.00;96.40;;;;;;5091600;28;20073;-70
2023/03/15 02:05:17;;;;;;;3.78;2.22;;;5.00;96.40;;;;;;5086627;28;20031;-70
2023/03/15 02:07:53;;;;;;;5.10;1.80;;;5.00;96.40;;;;;;5096785;28;20028;-70
2023/03/15 02:10:57;;;;;;;8.15;2.08;;;5.00;96.40;;;;;;5089913;28;20020;-70
2023/03/15 02:13:24;;;;;;;7.30;2.90;;;5.00;96.40;;;;;;5033811;28;20033;-70
2023/03/15 02:15:52;;;;;;;6.57;1.77;;;5.00;96.40;;;;;;5078880;28;20102;-70
2023/03/15 02:18:19;;;;;;;7.22;2.15;;;5.00;96.50;;;;;;5093062;28;20063;-70
2023/03/15 02:21:13;;;;;;;8.00;1.98;;;5.00;96.50;;;;;;5092009;28;20028;-70
2023/03/15 02:23:39;;;;;;;7.05;2.05;;;4.90;96.50;;;;;;5095180;28;20045;-69
2023/03/15 02:26:10;;;;;;;13.32;3.17;;;4.90;96.50;;;;;;5093855;28;20031;-69
2023/03/15 02:28:37;;;;;;;6.65;2.03;;;4.90;96.50;;;;;;5115047;28;20027;-70
2023/03/15 02:31:03;;;;;;;6.50;2.22;;;4.80;96.50;;;;;;5093856;28;20043;-69
2023/03/15 02:33:40;;;;;;;6.72;2.20;;;4.80;96.60;;;;;;5106862;28;20043;-69
2023/03/15 02:36:30;;;;;;;5.20;2.13;;;4.80;96.60;;;;;;5091084;28;20379;-69
2023/03/15 02:38:56;;;;;;;6.95;2.20;;;4.80;96.60;;;;;;5108409;28;20379;-69
2023/03/15 02:41:32;;;;;;;8.23;2.33;;;4.80;96.60;;;;;;5092337;28;20024;-70
2023/03/15 02:44:29;;;;;;;6.88;2.38;;;4.70;96.60;;;;;;5093516;28;20059;-69
2023/03/15 02:47:00;;;;;;;5.90;2.97;;;4.80;96.70;;;;;;5085097;28;20032;-69
2023/03/15 02:49:30;;;;;;;10.95;2.42;;;4.70;96.60;;;;;;5090121;28;20089;-68
2023/03/15 02:51:55;;;;;;;7.10;2.38;;;4.70;96.60;;;;;;5099709;28;20038;-69
2023/03/15 02:54:21;;;;;;;8.90;1.98;;;4.70;96.70;;;;;;5104843;28;20032;-69
2023/03/15 02:56:46;;;;;;;8.65;2.28;;;4.70;96.70;;;;;;5081991;28;20398;-68
2023/03/15 02:59:12;;;;;;;5.45;2.20;;;4.70;96.70;;;;;;5092071;28;20043;-69
2023/03/15 03:01:38;;;;;;;5.00;1.90;;;4.60;96.80;;;;;;5087623;28;20135;-68
2023/03/15 03:04:03;;;;;;;6.47;1.92;;;4.60;96.80;;;;;;5076186;28;20024;-69
2023/03/15 03:06:29;;;;;;;5.82;1.88;;;4.60;96.80;;;;;;5106537;28;20061;-70
2023/03/15 03:08:55;;;;;;;4.72;2.85;;;4.50;96.80;;;;;;5095376;28;20455;-70
2023/03/15 03:11:20;;;;;;;5.63;1.80;;;4.50;96.90;;;;;;5094934;28;20439;-69
2023/03/15 03:13:46;;;;;;;6.10;2.22;;;4.50;96.90;;;;;;5112805;28;20073;-69
2023/03/15 03:16:12;;;;;;;6.22;2.60;;;4.50;97.00;;;;;;5084199;28;20028;-69
2023/03/15 03:18:38;;;;;;;8.50;3.25;;;4.40;97.00;;;;;;5090612;28;20085;-69
2023/03/15 03:21:06;;;;;;;7.72;3.25;;;4.40;97.00;;;;;;5087876;28;20028;-69
2023/03/15 03:23:33;;;;;;;12.88;3.17;;;4.40;97.00;;;;;;5100510;28;20024;-69
2023/03/15 03:26:00;;;;;;;5.05;3.03;;;4.40;97.10;;;;;;5078481;28;20103;-69
2023/03/15 03:28:27;;;;;;;7.63;2.42;;;4.30;97.10;;;;;;5113402;28;20425;-69
2023/03/15 03:30:54;;;;;;;8.02;2.35;;;4.30;97.10;;;;;;5084505;28;20042;-69
2023/03/15 03:33:20;;;;;;;8.35;2.38;;;4.30;97.20;;;;;;5092391;28;20040;-69
2023/03/15 03:35:46;;;;;;;6.28;2.60;;;4.30;97.30;;;;;;5089996;28;20025;-69
2023/03/15 03:38:13;;;;;;;5.50;3.15;;;4.30;97.30;;;;;;5089135;28;20234;-69
2023/03/15 03:40:39;;;;;;;6.03;2.60;;;4.40;97.40;;;;;;5091574;28;20169;-70
2023/03/15 03:43:06;;;;;;;6.30;1.95;;;4.40;97.40;;;;;;5088947;28;20035;-69
2023/03/15 03:45:32;;;;;;;6.63;2.35;;;4.40;97.40;;;;;;5098891;28;20031;-69
2023/03/15 03:47:58;;;;;;;7.57;2.10;;;4.50;97.50;;;;;;5103569;28;20097;-69
2023/03/15 03:50:24;;;;;;;6.22;2.78;;;4.50;97.50;;;;;;5089169;28;20032;-71
2023/03/15 03:52:50;;;;;;;5.45;2.33;;;4.60;97.50;;;;;;5104158;28;20047;-71
2023/03/15 03:55:15;;;;;;;9.25;2.67;;;4.60;97.40;;;;;;5098255;28;20384;-71
2023/03/15 03:57:41;;;;;;;6.32;2.55;;;4.70;97.40;;;;;;5102362;28;20181;-71
2023/03/15 04:00:15;;;;;;;5.15;2.03;;;4.70;97.40;;;;;;5091584;28;20032;-71
2023/03/15 04:02:41;;;;;;;5.35;1.92;;;4.70;97.40;;;;;;5094239;28;20024;-71
2023/03/15 04:05:11;;;;;;;6.90;1.95;;;4.70;97.30;;;;;;5100116;28;20588;-71
2023/03/15 04:07:37;;;;;;;14.70;2.50;;;4.70;97.30;;;;;;5103060;28;20076;-71
2023/03/15 04:10:03;;;;;;;6.45;2.40;;;4.80;97.20;;;;;;5091540;28;20043;-71
2023/03/15 04:12:29;;;;;;;8.07;2.22;;;4.70;97.20;;;;;;5090588;28;20024;-71
2023/03/15 04:14:55;;;;;;;7.00;2.38;;;4.70;97.20;;;;;;5091554;28;20031;-71
2023/03/15 04:17:20;;;;;;;6.85;2.17;;;4.70;97.10;;;;;;5096600;28;20464;-70
2023/03/15 04:19:46;;;;;;;10.30;2.90;;;4.70;97.10;;;;;;5090599;28;20024;-69
2023/03/15 04:22:14;;;;;;;8.35;2.70;;;4.70;97.10;;;;;;5082178;28;20078;-69
2023/03/15 04:24:40;;;;;;;3.17;2.03;;;4.60;97.10;;;;;;5089736;28;20548;-70
2023/03/15 04:27:06;;;;;;;6.90;1.70;;;4.60;97.00;;;;;;5102381;28;20493;-69
2023/03/15 04:29:32;;;;;;;7.60;2.05;;;4.60;97.10;;;;;;5094798;28;20020;-69
2023/03/15 04:32:00;;;;;;;9.27;2.53;;;4.60;97.10;;;;;;5100346;28;20044;-69
2023/03/15 04:34:30;;;;;;;7.70;2.15;;;4.60;97.00;;;;;;5104777;27;20034;-69
2023/03/15 04:36:56;;;;;;;8.85;2.35;;;4.50;97.00;;;;;;5101221;28;20062;-69
2023/03/15 04:39:22;;;;;;;9.45;3.10;;;4.50;97.00;;;;;;5085058;28;20501;-69
2023/03/15 04:41:48;;;;;;;7.03;2.20;;;4.50;97.00;;;;;;5086597;28;20568;-69
2023/03/15 04:44:15;;;;;;;9.15;2.95;;;4.40;97.00;;;;;;5086353;28;20057;-69
2023/03/15 04:46:42;;;;;;;9.77;2.40;;;4.40;97.10;;;;;;5074248;28;20062;-70
2023/03/15 04:49:07;;;;;;;5.35;2.05;;;4.40;97.10;;;;;;5074158;28;20062;-69
2023/03/15 04:51:33;;;;;;;6.63;2.88;;;4.30;97.10;;;;;;5084106;28;20027;-68
2023/03/15 04:53:59;;;;;;;9.73;3.20;;;4.30;97.10;;;;;;5092097;28;20040;-69
2023/03/15 04:56:25;;;;;;;8.18;2.83;;;4.30;97.20;;;;;;5089268;28;20031;-69
2023/03/15 04:58:51;;;;;;;5.43;2.40;;;4.30;97.20;;;;;;5099612;28;20050;-69
2023/03/15 05:01:17;;;;;;;6.97;2.28;;;4.20;97.30;;;;;;5102479;28;20059;-68
2023/03/15 05:03:42;;;;;;;9.02;2.63;;;4.20;97.20;;;;;;5092982;28;20463;-68
2023/03/15 05:06:08;;;;;;;7.15;2.33;;;4.30;97.20;;;;;;5088822;28;20043;-68
2023/03/15 05:08:36;;;;;;;7.55;2.75;;;4.20;97.20;;;;;;5082668;28;20028;-68
2023/03/15 05:11:03;;;;;;;10.90;2.72;;;4.30;97.20;;;;;;5091025;28;20020;-68
2023/03/15 05:13:29;;;;;;;8.57;3.03;;;4.20;97.20;;;;;;5087099;28;20036;-68
2023/03/15 05:15:55;;;;;;;6.60;2.45;;;4.20;97.20;;;;;;5089654;28;20131;-68
2023/03/15 05:18:21;;;;;;;7.93;2.33;;;4.20;97.20;;;;;;5097464;28;20032;-69
2023/03/15 05:20:47;;;;;;;4.43;1.88;;;4.20;97.20;;;;;;5100959;28;20024;-69
2023/03/15 05:23:12;;;;;;;9.00;2.83;;;4.20;97.20;;;;;;5083166;28;20056;-69
2023/03/15 05:25:38;;;;;;;7.90;2.28;;;4.20;97.20;;;;;;5073221;28;20025;-69
2023/03/15 05:28:04;;;;;;;11.20;2.80;;;4.20;97.20;;;;;;5094732;28;20034;-70
2023/03/15 05:30:30;;;;;;;9.52;3.05;;;4.10;97.20;;;;;;5097390;28;20024;-69
2023/03/15 05:32:56;;;;;;;13.82;2.40;;;4.20;97.30;;;;;;5093370;28;20036;-68
2023/03/15 05:35:25;;;;;;;4.68;2.30;;;4.20;97.30;;;;;;5094859;28;20024;-70
2023/03/15 05:37:53;;;;;;;6.25;2.08;;;4.10;97.30;;;;;;5090403;28;20035;-68
2023/03/15 05:40:19;;;;;;;9.65;2.40;;;4.20;97.40;;;;;;5091362;28;20024;-69
2023/03/15 05:42:44;;;;;;;3.33;2.05;;;4.10;97.40;;;;;;5094186;28;20032;-69
2023/03/15 05:45:11;;;;;;;6.20;3.10;;;4.20;97.50;;;;;;5105004;28;20129;-68
2023/03/15 05:47:36;;;;;;;6.55;2.88;;;4.20;97.50;;;;;;5091468;28;20032;-68
2023/03/15 05:50:03;;;;;;;6.43;2.40;;;4.20;97.50;;;;;;5104387;28;20414;-70
2023/03/15 05:52:29;;;;;;;9.32;2.47;;;4.30;97.60;;;;;;5101588;28;20046;-69
2023/03/15 05:54:55;;;;;;;7.80;2.28;;;4.30;97.70;;;;;;5095856;28;20020;-69
2023/03/15 05:57:20;;;;;;;4.72;2.17;;;4.40;97.50;;;;;;5103334;28;20032;-70
2023/03/15 05:59:46;;;;;;;6.55;2.30;;;4.40;97.50;;;;;;5093103;28;20031;-69
2023/03/15 06:02:12;;;;;;;6.07;2.45;;;4.50;97.50;;;;;;5099722;28;20107;-69
2023/03/15 06:04:37;;;;;;;8.52;2.95;;;4.50;97.50;;;;;;5098135;28;20036;-69
2023/03/15 06:07:03;;;;;;;5.65;2.58;;;4.50;97.50;;;;;;5096366;28;20115;-69
2023/03/15 06:09:29;;;;;;;13.60;2.72;;;4.60;97.70;;;;;;5092264;28;20036;-69
2023/03/15 06:11:54;;;;;;;14.18;3.35;;;4.60;97.40;;;;;;5087731;28;20031;-70
2023/03/15 06:14:20;;;;;;;8.50;2.67;;;4.60;97.40;;;;;;5084369;28;20455;-69
2023/03/15 06:16:46;;;;;;;7.55;3.22;;;4.70;97.30;;;;;;5087671;28;20347;-69
2023/03/15 06:19:11;;;;;;;8.55;3.17;;;4.70;97.30;;;;;;5088595;28;20455;-69
2023/03/15 06:21:37;;;;;;;8.43;3.15;;;4.80;97.30;;;;;;5100026;28;20027;-69
2023/03/15 06:24:05;;;;;;;9.02;2.75;;;4.80;97.30;;;;;;5094020;28;20035;-69
2023/03/15 06:26:30;;;;;;;9.00;3.15;;;4.90;97.30;;;;;;5100293;28;20058;-69
2023/03/15 06:28:56;;;;;;;9.38;2.63;;;4.90;97.20;;;;;;5094428;28;20028;-70
2023/03/15 06:31:22;;;;;;;6.07;2.80;;;5.00;97.20;;;;;;5101193;28;20027;-70
2023/03/15 06:33:47;;;;;;;7.53;2.60;;;5.00;97.20;;;;;;5098180;28;20040;-70
2023/03/15 06:36:14;;;;;;;7.05;2.88;;;5.10;97.10;;;;;;5095561;28;20494;-71
2023/03/15 06:38:40;;;;;;;16.13;3.85;;;5.10;97.10;;;;;;5093352;28;20032;-70
2023/03/15 06:41:07;;;;;;;10.35;2.92;;;5.10;97.10;;;;;;5096881;28;20119;-70
2023/03/15 06:43:33;;;;;;;7.57;2.90;;;5.20;97.10;;;;;;5092807;28;20032;-70
2023/03/15 06:45:59;;;;;;;10.95;3.05;;;5.20;97.10;;;;;;5092756;28;20020;-70
2023/03/15 06:48:25;;;;;;;11.65;4.53;;;5.20;97.20;;;;;;5094148;28;20056;-70
2023/03/15 06:50:51;;;;;;;11.48;4.13;;;5.20;97.20;;;;;;5092637;28;20108;-70
2023/03/15 06:53:17;;;;;;;8.18;3.53;;;5.20;97.30;;;;;;5085092;28;20448;-71
2023/03/15 06:55:43;;;;;;;8.85;3.20;;;5.20;97.30;;;;;;5093071;28;20017;-70
2023/03/15 06:58:10;;;;;;;6.90;3.05;;;5.30;97.40;;;;;;5092899;28;20044;-72
2023/03/15 07:00:36;;;;;;;7.15;3.67;;;5.30;97.40;;;;;;5090392;28;20468;-71
2023/03/15 07:03:01;;;;;;;8.10;3.55;;;5.30;97.40;;;;;;5093703;28;20031;-70
2023/03/15 07:05:27;;;;;;;8.50;3.08;;;5.40;97.50;;;;;;5091356;28;20028;-66
2023/03/15 07:07:53;;;;;;;7.80;2.45;;;5.40;97.50;;;;;;5087787;28;20126;-69
2023/03/15 07:10:19;;;;;;;7.63;3.53;;;5.50;97.50;;;;;;5085572;28;20028;-70
2023/03/15 07:12:44;;;;;;;6.72;2.53;;;5.50;97.50;;;;;;5090768;28;20061;-69
2023/03/15 07:15:10;;;;;;;7.50;2.72;;;5.50;97.70;;;;;;5088995;28;20103;-68
2023/03/15 07:17:36;;;;;;;7.55;2.72;;;5.60;97.50;;;;;;5082152;28;20086;-69
2023/03/15 07:20:04;;;;;;;10.43;2.67;;;5.70;97.50;;;;;;5087971;28;20025;-69
2023/03/15 07:22:31;;;;;;;4.75;2.75;;;5.80;97.50;;;;;;5077072;28;20025;-69
2023/03/15 07:24:56;;;;;;;5.25;2.60;;;5.90;97.70;;;;;;5090074;28;20029;-69
2023/03/15 07:27:22;;;;;;;5.53;2.80;;;5.90;97.40;;;;;;5088249;28;20027;-69
2023/03/15 07:29:47;;;;;;;7.13;2.80;;;6.00;97.40;;;;;;5093310;28;20107;-70
2023/03/15 07:32:13;;;;;;;7.55;3.30;;;6.00;97.40;;;;;;5076391;28;20082;-70
2023/03/15 07:34:39;;;;;;;9.00;3.10;;;6.20;97.40;;;;;;5071735;28;20038;-70
2023/03/15 07:37:05;;;;;;;9.98;2.70;;;6.20;97.40;;;;;;5081629;28;20464;-70
2023/03/15 07:39:31;;;;;;;9.40;3.15;;;6.20;97.40;;;;;;5082372;28;20124;-70
2023/03/15 07:41:58;;;;;;;15.38;3.28;;;6.30;97.40;;;;;;5097001;28;20028;-70
2023/03/15 07:44:24;;;;;;;7.35;2.63;;;6.40;97.30;;;;;;5085027;28;20165;-69
2023/03/15 07:46:50;;;;;;;7.60;2.58;;;6.40;97.20;;;;;;5089655;28;20547;-69
2023/03/15 07:49:15;;;;;;;6.10;2.22;;;6.40;97.10;;;;;;5091121;28;20028;-71
2023/03/15 07:51:42;;;;;;;6.82;2.67;;;6.50;97.10;;;;;;5101750;28;20028;-70
2023/03/15 07:54:08;;;;;;;6.50;3.17;;;6.50;97.00;;;;;;5090840;28;20372;-70
2023/03/15 07:56:33;;;;;;;9.13;3.60;;;6.50;97.00;;;;;;5091594;28;20028;-70
2023/03/15 07:58:59;;;;;;;13.50;4.60;;;6.60;96.90;;;;;;5085132;28;20516;-69
2023/03/15 08:01:24;;;;;;;8.60;3.30;;;6.60;96.80;;;;;;5080538;28;20032;-69
2023/03/15 08:03:50;;;;;;;6.95;2.53;;;6.70;96.80;;;;;;5069896;28;20107;-70
2023/03/15 08:06:16;;;;;;;7.82;3.08;;;6.70;96.70;;;;;;5088358;28;20530;-71
2023/03/15 08:08:41;;;;;;;9.90;3.55;;;6.70;96.70;;;;;;5095008;28;20024;-68
2023/03/15 08:11:07;;;;;;;9.70;3.53;;;6.80;96.60;;;;;;5076743;28;20442;-69
2023/03/15 08:13:32;;;;;;;11.75;4.00;;;6.80;96.50;;;;;;5076194;28;20041;-70
2023/03/15 08:15:58;;;;;;;9.63;4.25;;;6.90;96.30;;;;;;5094214;28;20027;-69
2023/03/15 08:18:24;;;;;;;5.13;2.67;;;6.90;96.20;;;;;;5098216;28;20113;-69
2023/03/15 08:20:50;;;;;;;8.88;3.17;;;6.90;96.00;;;;;;5094979;28;20019;-69
2023/03/15 08:23:16;;;;;;;14.07;3.50;;;6.80;95.80;;;;;;5100112;28;20036;-69
2023/03/15 08:25:43;;;;;;;7.82;3.53;;;6.80;95.80;;;;;;5089586;28;20030;-67
2023/03/15 08:28:09;;;;;;;11.70;4.80;;;6.80;95.90;;;;;;5088194;28;20054;-65
2023/03/15 08:30:35;;;;;;;11.70;3.92;;;6.90;95.80;;;;;;5087025;28;20371;-66
2023/03/15 08:33:00;;;;;;;8.88;3.08;;;6.90;95.60;;;;;;5099359;28;20415;-66
2023/03/15 08:35:26;;;;;;;12.60;4.22;;;6.70;95.60;;;;;;5095052;28;20036;-66
2023/03/15 08:37:52;;;;;;;9.85;3.38;;;6.80;95.50;;;;;;5100348;28;20032;-66
2023/03/15 08:40:22;;;;;;;7.55;3.08;;;6.70;95.60;;;;;;5085190;28;20093;-66
2023/03/15 08:42:48;;;;;;;8.93;3.60;;;6.70;95.70;;;;;;5080553;28;20078;-66
2023/03/15 08:45:14;;;;;;;8.75;3.95;;;6.80;95.90;;;;;;5093654;28;20028;-67
2023/03/15 08:47:40;;;;;;;5.63;2.75;;;6.80;95.70;;;;;;5093266;28;20032;-68
2023/03/15 08:50:12;;;;;;;5.75;3.15;;;6.90;95.60;;;;;;5084196;28;20731;-68
2023/03/15 08:52:38;;;;;;;8.10;3.35;;;6.90;95.50;;;;;;5080249;28;20048;-68
2023/03/15 08:55:04;;;;;;;9.90;3.35;;;6.90;95.40;;;;;;5094628;28;20052;-68
2023/03/15 08:57:31;;;;;;;7.95;2.75;;;6.80;95.20;;;;;;5085334;28;20365;-68
2023/03/15 08:59:58;;;;;;;8.85;3.55;;;6.80;95.40;;;;;;5091103;28;20047;-68
2023/03/15 09:02:24;;;;;;;7.53;3.20;;;6.90;95.30;;;;;;5089815;28;20485;-68
2023/03/15 09:04:50;;;;;;;11.18;3.28;;;6.90;95.20;;;;;;5089195;28;20032;-68
2023/03/15 09:07:15;;;;;;;8.38;3.20;;;6.90;95.30;;;;;;5088489;28;20040;-68
2023/03/15 09:09:47;;;;;;;5.65;3.47;;;6.90;95.10;;;;;;5091902;28;20028;-67
2023/03/15 09:12:15;;;;;;;8.77;3.47;;;6.90;95.10;;;;;;5086377;28;20040;-68
2023/03/15 09:14:40;;;;;;;5.88;3.05;;;6.90;95.10;;;;;;5090005;28;20421;-69
2023/03/15 09:17:06;;;;;;;5.78;2.88;;;6.90;95.00;;;;;;5085951;28;20028;-68
2023/03/15 09:19:32;;;;;;;7.18;3.42;;;7.00;95.10;;;;;;5093681;28;20086;-68
2023/03/15 09:21:57;;;;;;;9.02;3.20;;;7.10;95.00;;;;;;5088719;28;20585;-68
2023/03/15 09:24:23;;;;;;;8.32;2.92;;;7.20;95.00;;;;;;5095067;28;20024;-67
2023/03/15 09:26:49;;;;;;;4.65;2.75;;;7.30;94.90;;;;;;5086912;28;20116;-68
2023/03/15 09:29:14;;;;;;;10.70;3.58;;;7.40;94.90;;;;;;5106767;28;20115;-67
2023/03/15 09:31:40;;;;;;;5.75;3.05;;;7.50;94.80;;;;;;5092356;28;20411;-67
2023/03/15 09:34:05;;;;;;;11.35;3.78;;;7.60;94.60;;;;;;5096398;28;20406;-67
2023/03/15 09:36:32;;;;;;;9.95;3.42;;;7.60;94.60;;;;;;5095270;28;20054;-67
2023/03/15 09:38:58;;;;;;;8.73;3.40;;;7.50;94.30;;;;;;5097347;28;20104;-67
2023/03/15 09:41:32;;;;;;;7.65;3.60;;;7.50;94.30;;;;;;5099903;28;20479;-67
2023/03/15 09:44:06;;;;;;;4.45;2.72;;;7.50;94.20;;;;;;5094456;28;20032;-68
2023/03/15 09:47:10;;;;;;;8.00;3.35;;;7.50;94.00;;;;;;5098104;28;20433;-68
2023/03/15 09:50:12;;;;;;;8.68;2.60;;;7.50;94.20;;;;;;5098971;28;20032;-68
2023/03/15 09:52:46;;;;;;;7.97;3.20;;;7.50;93.90;;;;;;5092114;28;20104;-66
2023/03/15 09:55:17;;;;;;;11.98;3.60;;;7.50;93.90;;;;;;5098165;28;20495;-67
2023/03/15 09:57:55;;;;;;;8.70;3.00;;;7.40;93.60;;;;;;5091132;28;20048;-67
2023/03/15 10:00:37;;;;;;;9.27;3.00;;;7.40;93.70;;;;;;5094248;28;20488;-67
2023/03/15 10:03:06;;;;;;;7.05;2.78;;;7.50;93.80;;;;;;5091029;28;20024;-66
2023/03/15 10:05:42;;;;;;;7.07;2.58;;;7.60;93.80;;;;;;5087514;28;20043;-66
2023/03/15 10:08:13;;;;;;;9.05;3.30;;;7.70;93.70;;;;;;5091990;28;20059;-66
2023/03/15 10:10:50;;;;;;;7.63;3.10;;;7.80;93.40;;;;;;5092990;28;20383;-67
2023/03/15 10:13:45;;;;;;;6.15;2.85;;;7.90;93.50;;;;;;5089307;28;20036;-66
2023/03/15 10:16:11;;;;;;;12.75;2.97;;;8.00;93.60;;;;;;5091218;28;20112;-66
2023/03/15 10:18:51;;;;;;;5.55;2.80;;;8.10;93.60;;;;;;5093327;28;20449;-67
2023/03/15 10:21:48;;;;;;;10.00;2.95;;;8.20;93.20;;;;;;5088510;28;20541;-67
2023/03/15 10:24:29;;;;;;;5.93;3.10;;;8.20;93.10;;;;;;5078749;28;20107;-67
2023/03/15 10:26:59;;;;;;;7.38;2.60;;;8.30;93.20;;;;;;5094040;28;20024;-66
2023/03/15 10:29:26;;;;;;;7.97;3.80;;;8.30;93.00;;;;;;5099525;28;20039;-67
2023/03/15 10:31:53;;;;;;;9.23;2.90;;;8.20;92.60;;;;;;5090977;27;20028;-66
2023/03/15 10:34:20;;;;;;;5.00;2.83;;;8.20;92.80;;;;;;5088987;28;20035;-67
2023/03/15 10:36:54;;;;;;;6.53;2.80;;;8.20;92.90;;;;;;5087544;28;20477;-67
2023/03/15 10:39:21;;;;;;;8.80;3.17;;;8.20;92.60;;;;;;5085965;28;20035;-67
2023/03/15 10:41:49;;;;;;;5.20;2.70;;;8.20;92.80;;;;;;5092787;28;20020;-67
2023/03/15 10:44:24;;;;;;;4.25;2.55;;;8.20;93.00;;;;;;5088520;28;20058;-68
2023/03/15 10:47:06;;;;;;;6.90;2.67;;;8.20;92.70;;;;;;5093869;28;20063;-67
2023/03/15 10:49:37;;;;;;;5.53;2.58;;;8.20;92.40;;;;;;5093614;28;20054;-66
2023/03/15 10:52:03;;;;;;;5.10;2.40;;;8.20;92.50;;;;;;5092660;28;20032;-67
2023/03/15 10:54:32;;;;;;;6.97;2.50;;;8.30;92.60;;;;;;5095300;28;20047;-67
2023/03/15 10:57:05;;;;;;;5.20;2.45;;;8.40;92.60;;;;;;5093233;28;20159;-68
2023/03/15 10:59:34;;;;;;;7.57;2.83;;;8.50;92.40;;;;;;5093594;28;20044;-68
2023/03/15 11:02:11;;;;;;;4.85;2.08;;;8.50;92.00;;;;;;5099701;28;20174;-66
2023/03/15 11:04:42;;;;;;;3.85;2.60;;;8.50;92.00;;;;;;5093132;28;20031;-67
2023/03/15 11:07:09;;;;;;;6.75;2.72;;;8.50;91.90;;;;;;5094074;28;20573;-67
2023/03/15 11:09:44;;;;;;;4.10;2.53;;;8.50;91.80;;;;;;5093688;28;20042;-67
2023/03/15 11:12:19;;;;;;;7.18;2.35;;;8.40;92.00;;;;;;5079299;28;20050;-67
2023/03/15 11:14:48;;;;;;;6.95;2.60;;;8.50;92.00;;;;;;5096145;28;20028;-67
2023/03/15 11:17:26;;;;;;;5.75;2.33;;;8.60;92.00;;;;;;5097777;28;20035;-67
2023/03/15 11:20:15;;;;;;;4.40;2.47;;;8.70;91.90;;;;;;5088638;28;20036;-67
2023/03/15 11:22:41;;;;;;;4.20;1.95;;;8.70;91.80;;;;;;5091111;28;20024;-67
2023/03/15 11:25:16;;;;;;;4.15;2.03;;;8.70;91.80;;;;;;5086218;28;20052;-67
2023/03/15 11:27:43;;;;;;;6.95;2.40;;;8.70;91.30;;;;;;5090866;28;20051;-67
2023/03/15 11:30:14;;;;;;;3.80;2.50;;;8.80;91.40;;;;;;5089869;28;20032;-67
2023/03/15 11:32:41;;;;;;;4.68;2.50;;;8.80;91.30;;;;;;5089008;28;20024;-67
2023/03/15 11:35:23;;;;;;;8.25;2.33;;;8.80;91.30;;;;;;5094901;28;20401;-67
2023/03/15 11:38:00;;;;;;;8.68;2.88;;;9.00;91.40;;;;;;5101225;28;20034;-67
2023/03/15 11:40:42;;;;;;;13.40;2.70;;;9.10;91.30;;;;;;5096633;28;20031;-69
2023/03/15 11:43:10;;;;;;;8.02;3.17;;;9.30;91.30;;;;;;5105421;28;20019;-68
2023/03/15 11:45:49;;;;;;;4.80;2.22;;;9.40;91.30;;;;;;5101828;28;20032;-68
2023/03/15 11:48:30;;;;;;;5.15;2.25;;;9.40;90.30;;;;;;5106936;28;20487;-68
2023/03/15 11:50:57;;;;;;;7.13;2.17;;;9.50;90.40;;;;;;5104764;28;20032;-67
2023/03/15 11:53:28;;;;;;;4.30;1.77;;;9.50;90.10;;;;;;5093032;28;20063;-68
2023/03/15 11:55:54;;;;;;;4.53;1.90;;;9.60;90.20;;;;;;5095533;28;20110;-67
2023/03/15 11:58:33;;;;;;;5.28;1.85;;;9.60;90.00;;;;;;5092638;28;20568;-68
2023/03/15 12:01:04;;;;;;;4.35;2.60;;;9.60;89.80;;;;;;5099703;28;20036;-67
2023/03/15 12:03:39;;;;;;;6.30;2.50;;;9.50;89.30;;;;;;5094143;28;20391;-68
2023/03/15 12:06:15;;;;;;;4.68;2.17;;;9.50;89.00;;;;;;5102612;28;20038;-68
2023/03/15 12:08:50;;;;;;;4.78;1.95;;;9.50;89.10;;;;;;5104675;28;20082;-66
2023/03/15 12:11:19;;;;;;;4.88;1.95;;;9.50;89.00;;;;;;5095709;28;20386;-67
2023/03/15 12:13:59;;;;;;;4.68;1.88;;;9.40;87.70;;;;;;5091635;28;20039;-68
2023/03/15 12:16:28;;;;;;;5.10;2.10;;;9.30;87.00;;;;;;5093719;28;20028;-68
2023/03/15 12:18:58;;;;;;;2.90;1.77;;;9.10;86.20;;;;;;5084489;28;20173;-67
2023/03/15 12:21:43;;;;;;;4.13;2.13;;;8.80;86.40;;;;;;5090147;28;20028;-68
2023/03/15 12:24:30;;;;;;;4.55;2.10;;;8.70;87.10;;;;;;5090978;28;20028;-67
2023/03/15 12:27:14;;;;;;;5.22;2.08;;;8.60;87.70;;;;;;5084439;28;20025;-67
2023/03/15 12:29:59;;;;;;;4.55;1.80;;;8.70;87.80;;;;;;5085017;28;20032;-68
2023/03/15 12:32:27;;;;;;;9.93;2.67;;;8.60;87.50;;;;;;5083558;28;20032;-67
2023/03/15 12:35:07;;;;;;;6.95;2.05;;;8.60;88.00;;;;;;5084255;28;20039;-67
2023/03/15 12:37:50;;;;;;;3.28;2.20;;;8.70;88.30;;;;;;5091175;28;20042;-68
2023/03/15 12:40:21;;;;;;;6.00;2.20;;;8.80;88.90;;;;;;5074087;28;20040;-67
2023/03/15 12:42:46;;;;;;;8.43;2.58;;;8.90;87.90;;;;;;5081950;28;20083;-67
2023/03/15 12:45:15;;;;;;;6.25;3.15;;;8.80;87.60;;;;;;5071144;28;20496;-68
2023/03/15 12:47:50;;;;;;;7.22;2.20;;;8.80;86.40;;;;;;5086822;28;20081;-67
2023/03/15 12:50:44;;;;;;;5.82;2.13;;;8.80;86.40;;;;;;5086995;28;20036;-67
2023/03/15 12:53:42;;;;;;;6.47;2.60;;;8.80;86.80;;;;;;5086016;28;20386;-66
2023/03/15 12:56:23;;;;;;;5.00;2.15;;;8.80;86.40;;;;;;5083666;28;20066;-67
2023/03/15 12:58:54;;;;;;;6.13;2.10;;;8.70;84.80;;;;;;5089221;28;20055;-67
2023/03/15 13:01:24;;;;;;;5.72;2.00;;;8.60;84.50;;;;;;5091325;28;20360;-67
2023/03/15 13:03:54;;;;;;;8.95;2.58;;;8.50;84.70;;;;;;5086802;28;20024;-67
2023/03/15 13:06:57;;;;;;;5.80;2.50;;;8.50;84.80;;;;;;5071888;28;20391;-66